Aérodrome :
LOGIN :

S'inscrire | Disclaimer

   EN    FR    IT 

 










Légende :    VFR   VFR Marginal   IFR   IFR Intensif   IFR Très Intensif
Visi : 
Plafond : 
>= 8 km
>= 3000ft
5 à 8 km
1000 à 3000 ft
1500m à 5 km
500 à 1000 ft
800 à 1500m
200 à 500 ft
< 800m
< 200 ft
Symboles :   Orages  Brouillard  Fortes neiges  Fortes précipitations  Vent > 20 kt
SIGMETs :   Divers  Orages  Givrage  Turbulence  Onde Orograph.  Cendres Volcan.







- Altitude de l'aérodrome : 408 ft
- Code IATA : FKB


EDSB - Karlsruhe Baden Baden

DERNIER METAR :
  • 152050Z 18003KT CAVOK 02/01 Q1029

METARs EXPIRÉS :
  • 152020Z 20003KT CAVOK 04/02 Q1029
  • 151950Z 18003KT CAVOK 03/01 Q1029
  • 151920Z 17003KT CAVOK 03/00 Q1030
  • 151850Z 16003KT CAVOK 04/01 Q1030
  • 151820Z 20003KT CAVOK 05/01 Q1030
  • 151750Z 20003KT CAVOK 05/01 Q1030

TAF TAF EDSB
Valide du 15 à 18h jusqu'au 16 à 18h UTC


151700Z 1518/1618 VRB03KT CAVOK
TEMPO 1523/1610 3000 BR
PROB30
TEMPO 1603/1608 0500 FZFG OVC001
Pas de NOTAMs connus pour ce terrain.



MET'MAP, la Météo Aéronautique d'un coup d'oeil ! - Copyright ORBIFLY Décembre 2007 - Disclaimer

ORBIFLY MET'MAP TEAM :

Programmation & Développement : Alexandra Zaïnal
Conception & Développement : Baudouin d'Aumeries
Co-Programmation & Développement : Marc-Olivier Méhu
Soutien technique & logistique : Manuel Goepfert

Contact : metmap@orbifly.com




SOURCES & CREDITS :

   NOAA